Time;durP1;ratioP1;P1;durP2;ratioP2;P2;SDS_P1;SDS_P2;PMS_P1;PMS_P2;Temp;Humidity;BMP_temperature;BMP_pressure;BME280_temperature;BME280_humidity;BME280_pressure;Samples;Min_cycle;Max_cycle;Signal;HPM_P1;HPM_P2
2022/05/20 00:00:19;;;;;;;3.45;0.50;;;;;;;18.13;55.08;101569.16;7380593;19;20011;-68
2022/05/20 00:02:46;;;;;;;3.70;0.20;;;;;;;18.12;54.69;101578.16;7381178;19;20321;-68
2022/05/20 00:05:15;;;;;;;2.15;0.20;;;;;;;18.13;54.95;101573.66;7380253;19;20484;-66
2022/05/20 00:07:43;;;;;;;3.15;0.30;;;;;;;18.15;55.50;101564.44;7382407;19;20002;-68
2022/05/20 00:10:15;;;;;;;1.90;0.20;;;;;;;18.13;54.95;101563.81;7385558;19;20062;-69
2022/05/20 00:12:44;;;;;;;6.60;0.38;;;;;;;18.13;54.97;101563.81;7383113;19;20034;-68
2022/05/20 00:15:20;;;;;;;3.60;0.20;;;;;;;18.09;55.51;101561.69;7378230;19;20010;-68
2022/05/20 00:17:48;;;;;;;1.27;0.20;;;;;;;18.04;56.56;101554.25;7384377;19;20018;-68
2022/05/20 00:20:17;;;;;;;2.65;0.20;;;;;;;18.07;55.97;101539.75;7382104;19;20476;-68
2022/05/20 00:22:45;;;;;;;3.33;0.35;;;;;;;18.07;55.54;101540.56;7380218;19;20002;-69
2022/05/20 00:27:43;;;;;;;3.63;0.35;;;;;;;18.08;55.84;101541.41;7379924;19;20037;-68
2022/05/20 00:30:11;;;;;;;1.58;0.20;;;;;;;18.04;55.68;101532.94;7381579;19;20464;-69
2022/05/20 00:32:40;;;;;;;5.38;0.35;;;;;;;18.05;54.97;101536.44;7382107;19;20120;-67
2022/05/20 00:35:09;;;;;;;3.53;0.30;;;;;;;18.03;54.77;101539.28;7380128;19;20022;-67
2022/05/20 00:37:37;;;;;;;2.50;0.20;;;;;;;17.96;55.24;101538.38;7381103;19;20113;-67
2022/05/20 00:40:05;;;;;;;4.80;0.30;;;;;;;17.93;56.68;101538.72;7378026;19;20018;-67
2022/05/20 00:42:34;;;;;;;2.30;0.32;;;;;;;17.88;55.33;101536.59;7380663;19;20106;-67
2022/05/20 00:45:02;;;;;;;0.43;0.08;;;;;;;17.89;54.72;101537.44;7377678;19;20015;-69
2022/05/20 00:47:29;;;;;;;3.33;0.13;;;;;;;17.85;55.21;101529.00;7381925;19;20074;-67
2022/05/20 00:50:01;;;;;;;1.95;0.10;;;;;;;17.81;54.57;101522.38;7379095;19;20015;-67
2022/05/20 00:52:31;;;;;;;3.75;0.20;;;;;;;17.83;54.95;101532.84;7383603;19;20025;-67
2022/05/20 00:55:02;;;;;;;3.13;0.40;;;;;;;17.85;53.55;101549.47;7380548;19;20014;-66
2022/05/20 00:57:37;;;;;;;1.05;0.20;;;;;;;17.85;53.68;101542.31;7383549;19;20007;-67
2022/05/20 01:00:10;;;;;;;2.28;0.20;;;;;;;17.82;53.74;101534.69;7387160;19;20095;-69
2022/05/20 01:02:56;;;;;;;;;;;;;;;17.82;53.73;101553.34;7385481;19;20464;-68
2022/05/20 01:05:27;;;;;;;1.73;0.47;;;;;;;17.81;55.08;101538.38;7384181;19;19915;-67
2022/05/20 01:07:55;;;;;;;2.38;0.10;;;;;;;17.76;54.65;101539.91;7387586;19;20027;-70
2022/05/20 01:10:23;;;;;;;1.92;0.17;;;;;;;17.77;54.61;101528.25;7382927;19;20037;-68
2022/05/20 01:12:51;;;;;;;1.63;0.20;;;;;;;17.73;54.74;101538.44;7381990;19;20006;-68
2022/05/20 01:15:19;;;;;;;3.72;0.20;;;;;;;17.69;54.48;101528.34;7383465;19;20023;-67
2022/05/20 01:17:47;;;;;;;2.05;0.10;;;;;;;17.70;54.75;101520.16;7382002;19;20011;-69
2022/05/20 01:20:20;;;;;;;4.03;0.40;;;;;;;17.72;55.00;101520.00;7382671;19;20019;-67
2022/05/20 01:23:00;;;;;;;2.22;0.10;;;;;;;17.73;53.47;101532.28;7383596;19;20038;-68
2022/05/20 01:25:29;;;;;;;2.05;0.10;;;;;;;17.73;53.62;101540.25;7384809;19;20011;-67
2022/05/20 01:27:58;;;;;;;1.85;0.10;;;;;;;17.67;53.20;101549.84;7392423;19;20135;-67
2022/05/20 01:30:28;;;;;;;2.25;0.20;;;;;;;17.66;53.63;101531.38;7386507;19;20018;-68
2022/05/20 01:32:56;;;;;;;2.70;0.10;;;;;;;17.63;54.14;101526.38;7391784;19;20022;-68
2022/05/20 01:35:30;;;;;;;2.17;0.20;;;;;;;17.61;53.42;101513.28;7390605;19;20058;-67
2022/05/20 01:37:57;;;;;;;2.38;0.10;;;;;;;17.61;53.28;101523.94;7385915;19;20417;-68
2022/05/20 01:40:27;;;;;;;2.70;0.28;;;;;;;17.60;53.32;101503.63;7391859;19;20027;-67
2022/05/20 01:43:02;;;;;;;2.20;0.20;;;;;;;17.59;53.17;101517.09;7391816;19;20318;-67
2022/05/20 01:45:53;;;;;;;1.88;0.20;;;;;;;17.62;54.33;101511.44;7392888;19;20452;-69
2022/05/20 01:48:26;;;;;;;1.75;0.20;;;;;;;17.63;53.79;101510.41;7394831;19;20027;-67
2022/05/20 01:50:53;;;;;;;;;;;;;;;17.63;54.08;101505.94;7393414;19;20097;-68
2022/05/20 01:53:25;;;;;;;1.30;0.10;;;;;;;17.54;53.43;101507.81;7393738;19;19930;-68
2022/05/20 01:55:52;;;;;;;;;;;;;;;17.47;53.68;101517.53;7391344;19;20007;-67
2022/05/20 01:58:25;;;;;;;3.63;0.40;;;;;;;17.43;54.65;101510.91;7392101;19;19911;-68
2022/05/20 02:00:56;;;;;;;2.05;0.20;;;;;;;17.44;54.39;101501.09;7393941;19;20034;-68
2022/05/20 02:03:29;;;;;;;3.53;0.13;;;;;;;17.45;53.96;101497.44;7391702;19;20034;-69
2022/05/20 02:05:56;;;;;;;;;;;;;;;17.45;54.61;101497.44;7385998;19;20108;-67
2022/05/20 02:08:29;;;;;;;1.52;0.10;;;;;;;17.40;54.42;101491.84;7381750;19;19930;-68
2022/05/20 02:11:00;;;;;;;1.48;0.32;;;;;;;17.32;54.68;101497.25;7389928;19;20014;-70
2022/05/20 02:13:29;;;;;;;2.35;0.10;;;;;;;17.30;55.39;101499.25;7394466;19;20456;-68
2022/05/20 02:16:03;;;;;;;2.22;0.20;;;;;;;17.34;55.94;101505.84;7392565;19;20129;-67
2022/05/20 02:18:41;;;;;;;2.15;0.13;;;;;;;17.33;55.05;101507.69;7391255;19;20014;-68
2022/05/20 02:21:11;;;;;;;1.27;0.20;;;;;;;17.32;54.13;101489.25;7397644;19;20005;-67
2022/05/20 02:23:44;;;;;;;3.20;0.15;;;;;;;17.31;54.29;101482.28;7389373;19;20023;-71
2022/05/20 02:26:17;;;;;;;1.30;0.10;;;;;;;17.28;55.05;101491.44;7393226;19;20027;-68
2022/05/20 02:28:48;;;;;;;5.88;0.10;;;;;;;17.25;54.45;101491.81;7390958;19;20084;-68
2022/05/20 02:31:23;;;;;;;2.58;0.08;;;;;;;17.24;55.01;101476.84;7396727;19;20472;-68
2022/05/20 02:33:52;;;;;;;0.55;0.10;;;;;;;17.22;54.91;101484.16;7391965;19;20045;-68
2022/05/20 02:36:24;;;;;;;1.90;0.20;;;;;;;17.23;54.66;101469.88;7390126;19;20003;-67
2022/05/20 02:38:52;;;;;;;2.45;0.20;;;;;;;17.23;55.13;101482.34;7391657;19;20019;-67
2022/05/20 02:41:19;;;;;;;1.13;0.10;;;;;;;17.21;55.24;101485.19;7392197;19;20020;-68
2022/05/20 02:43:45;;;;;;;1.42;0.10;;;;;;;17.21;55.40;101479.88;7388375;19;20490;-67
2022/05/20 02:46:13;;;;;;;2.80;0.10;;;;;;;17.18;56.90;101468.75;7388746;19;20018;-69
2022/05/20 02:48:40;;;;;;;1.65;0.20;;;;;;;17.19;55.90;101475.72;7387241;19;20122;-68
2022/05/20 02:51:07;;;;;;;1.67;0.10;;;;;;;17.18;55.11;101474.91;7395269;19;20469;-66
2022/05/20 02:53:35;;;;;;;2.47;0.30;;;;;;;17.13;55.17;101448.00;7395631;19;20015;-67
2022/05/20 02:56:03;;;;;;;1.77;0.10;;;;;;;17.13;55.52;101450.69;7393985;19;20038;-69
2022/05/20 03:06:10;;;;;;;2.83;0.13;;;;;;;17.14;55.72;101449.69;7391185;19;20341;-68
2022/05/20 03:08:37;;;;;;;2.75;0.20;;;;;;;17.10;56.22;101449.22;7389490;19;20014;-68
2022/05/20 03:11:04;;;;;;;2.95;0.20;;;;;;;17.09;56.86;101449.38;7390824;19;20004;-67
2022/05/20 03:13:31;;;;;;;1.10;0.10;;;;;;;17.09;56.95;101447.56;7388602;19;20014;-66
2022/05/20 03:15:58;;;;;;;1.90;0.17;;;;;;;17.08;58.19;101458.38;7393445;19;20043;-67
2022/05/20 03:18:26;;;;;;;4.28;0.40;;;;;;;17.04;57.29;101457.06;7390507;19;20507;-68
2022/05/20 03:20:53;;;;;;;2.05;0.38;;;;;;;17.00;57.27;101451.31;7392048;19;20035;-66
2022/05/20 03:23:20;;;;;;;2.45;0.30;;;;;;;17.00;57.82;101451.31;7391001;19;20429;-66
2022/05/20 03:25:47;;;;;;;2.90;0.43;;;;;;;16.96;58.13;101433.22;7391408;19;20010;-68
2022/05/20 03:28:15;;;;;;;0.85;0.10;;;;;;;16.93;58.22;101418.44;7389460;19;20465;-67
2022/05/20 03:30:42;;;;;;;3.17;0.20;;;;;;;16.91;59.40;101431.13;7390029;19;20015;-68
2022/05/20 03:33:09;;;;;;;2.28;0.20;;;;;;;16.93;59.09;101442.38;7388928;19;20055;-68
2022/05/20 03:35:37;;;;;;;2.35;0.10;;;;;;;16.95;58.60;101439.53;7393692;19;20066;-68
2022/05/20 03:38:04;;;;;;;3.97;0.35;;;;;;;16.93;59.12;101446.88;7387878;19;20023;-67
2022/05/20 03:40:31;;;;;;;2.47;0.30;;;;;;;16.88;58.96;101436.78;7389247;19;20018;-70
2022/05/20 03:42:59;;;;;;;4.63;0.25;;;;;;;16.90;59.31;101445.41;7385355;19;20015;-68
2022/05/20 03:45:32;;;;;;;3.38;0.20;;;;;;;16.89;59.46;101432.28;7393852;19;20448;-67
2022/05/20 03:48:07;;;;;;;4.05;0.30;;;;;;;16.86;59.50;101428.16;7386781;19;20026;-69
2022/05/20 03:50:40;;;;;;;4.03;0.40;;;;;;;16.85;59.88;101423.84;7392698;19;20014;-68
2022/05/20 03:53:08;;;;;;;3.75;0.20;;;;;;;16.81;60.19;101414.56;7390127;19;20020;-68
2022/05/20 03:55:35;;;;;;;2.78;0.20;;;;;;;16.76;60.17;101418.78;7392471;19;20011;-68
2022/05/20 03:58:02;;;;;;;3.53;0.20;;;;;;;16.71;60.75;101413.97;7386117;19;20017;-67
2022/05/20 04:00:29;;;;;;;3.65;0.40;;;;;;;16.69;61.01;101418.66;7391190;19;20014;-69
2022/05/20 04:02:56;;;;;;;2.65;0.20;;;;;;;16.68;60.89;101401.88;7388823;19;20484;-68
2022/05/20 04:05:24;;;;;;;3.83;0.30;;;;;;;16.72;60.70;101391.72;7388276;19;20085;-68
2022/05/20 04:07:51;;;;;;;3.05;0.20;;;;;;;16.73;61.22;101395.19;7384698;19;20540;-69
2022/05/20 04:10:18;;;;;;;1.95;0.30;;;;;;;16.74;61.24;101387.06;7389204;19;20351;-67
2022/05/20 04:12:45;;;;;;;1.83;0.30;;;;;;;16.76;61.23;101389.53;7388017;19;20024;-68
2022/05/20 04:15:15;;;;;;;2.47;0.40;;;;;;;16.75;61.30;101387.88;7393932;19;20007;-69
2022/05/20 04:17:42;;;;;;;6.90;0.70;;;;;;;16.72;61.21;101383.72;7389903;19;20102;-68
2022/05/20 04:20:09;;;;;;;5.53;0.30;;;;;;;16.72;61.01;101402.34;7391202;19;20123;-67
2022/05/20 04:22:39;;;;;;;2.58;0.30;;;;;;;16.71;61.27;101407.84;7388910;19;20183;-69
2022/05/20 04:25:07;;;;;;;2.38;0.28;;;;;;;16.64;61.71;101405.06;7394665;19;20031;-69
2022/05/20 04:27:33;;;;;;;4.82;0.20;;;;;;;16.62;62.22;101415.03;7389704;19;20468;-68
2022/05/20 04:30:01;;;;;;;2.13;0.20;;;;;;;16.62;62.71;101429.16;7387681;19;20011;-67
2022/05/20 04:32:36;;;;;;;3.22;0.30;;;;;;;16.65;63.70;101426.16;7388547;19;20010;-69
2022/05/20 04:35:06;;;;;;;4.75;0.52;;;;;;;16.62;62.94;101418.53;7390209;19;20010;-70
2022/05/20 04:37:33;;;;;;;5.35;0.40;;;;;;;16.58;62.98;101413.72;7388977;19;20078;-67
2022/05/20 04:40:01;;;;;;;2.17;0.63;;;;;;;16.58;63.49;101421.69;7391273;19;20483;-68
2022/05/20 04:47:32;;;;;;;4.20;0.35;;;;;;;16.48;65.01;101431.72;7386888;19;20436;-67
2022/05/20 04:50:01;;;;;;;4.07;0.20;;;;;;;16.50;65.03;101435.03;7389310;19;20003;-68
2022/05/20 04:52:27;;;;;;;4.97;0.35;;;;;;;16.51;64.66;101444.63;7384843;19;20442;-67
2022/05/20 04:54:54;;;;;;;5.38;0.38;;;;;;;16.53;64.33;101448.78;7385267;19;20015;-69
2022/05/20 04:57:26;;;;;;;4.10;0.20;;;;;;;16.55;64.38;101440.66;7387011;19;20599;-69
2022/05/20 04:59:59;;;;;;;5.10;0.20;;;;;;;16.55;64.19;101432.69;7399904;19;20011;-69
2022/05/20 05:02:27;;;;;;;3.13;0.40;;;;;;;16.54;64.26;101431.84;7394643;19;20779;-69
2022/05/20 05:04:56;;;;;;;6.28;0.20;;;;;;;16.56;64.54;101437.81;7398321;19;20006;-69
2022/05/20 05:07:24;;;;;;;5.50;0.30;;;;;;;16.57;64.50;101444.78;7392454;19;20015;-68
2022/05/20 05:09:53;;;;;;;5.57;0.30;;;;;;;16.56;64.92;101443.13;7396344;19;20419;-69
2022/05/20 05:12:21;;;;;;;2.83;0.20;;;;;;;16.55;64.92;101436.16;7393093;19;20094;-67
2022/05/20 05:14:50;;;;;;;3.78;0.20;;;;;;;16.52;65.20;101444.47;7397697;19;20519;-68
2022/05/20 05:20:21;;;;;;;5.35;0.30;;;;;;;16.48;66.35;101443.19;7395925;19;20007;-67
2022/05/20 05:22:56;;;;;;;6.97;0.98;;;;;;;16.44;65.88;101433.91;7396773;19;20044;-67
2022/05/20 05:25:29;;;;;;;1.95;0.30;;;;;;;16.44;66.07;101433.91;7394902;19;20014;-68
2022/05/20 05:28:00;;;;;;;3.15;0.20;;;;;;;16.44;65.93;101431.25;7393911;19;20192;-68
2022/05/20 05:30:42;;;;;;;5.60;0.30;;;;;;;16.49;65.86;101415.63;7395950;19;20007;-68
2022/05/20 05:33:13;;;;;;;5.57;0.60;;;;;;;16.44;66.00;101407.34;7393618;19;20010;-67
2022/05/20 05:35:41;;;;;;;5.93;0.40;;;;;;;16.45;67.11;101392.25;7393188;19;20367;-68
2022/05/20 05:38:09;;;;;;;2.72;0.30;;;;;;;16.49;66.39;101393.53;7392711;19;20014;-69
2022/05/20 05:40:36;;;;;;;3.15;0.40;;;;;;;16.51;66.32;101394.16;7394459;19;20480;-67
2022/05/20 05:43:04;;;;;;;2.03;0.20;;;;;;;16.49;66.31;101404.16;7388840;19;20013;-69
2022/05/20 05:45:32;;;;;;;9.13;0.50;;;;;;;16.51;66.42;101431.34;7393072;19;20052;-68
2022/05/20 05:48:20;;;;;;;3.10;0.30;;;;;;;16.53;66.24;101432.03;7390611;19;20506;-69
2022/05/20 05:50:48;;;;;;;3.50;0.40;;;;;;;16.58;66.89;101440.28;7396849;19;20014;-67
2022/05/20 05:53:19;;;;;;;4.40;0.40;;;;;;;16.59;67.05;101434.84;7395954;19;20006;-66
2022/05/20 05:55:48;;;;;;;6.50;0.40;;;;;;;16.62;66.88;101444.28;7394778;19;20086;-67
2022/05/20 05:58:16;;;;;;;2.72;0.25;;;;;;;16.66;66.85;101449.06;7392523;19;20102;-69
2022/05/20 06:00:43;;;;;;;3.97;0.63;;;;;;;16.68;66.80;101457.69;7395897;19;20039;-69
2022/05/20 06:03:11;;;;;;;5.25;0.40;;;;;;;16.70;66.92;101460.19;7391137;19;20070;-68
2022/05/20 06:05:38;;;;;;;5.15;0.40;;;;;;;16.73;66.95;101454.50;7393092;19;20030;-67
2022/05/20 06:08:06;;;;;;;5.88;0.35;;;;;;;16.77;67.23;101449.66;7390061;19;20720;-66
2022/05/20 06:10:33;;;;;;;7.85;0.40;;;;;;;16.76;67.00;101448.81;7393010;19;20018;-69
2022/05/20 06:13:00;;;;;;;6.97;0.30;;;;;;;16.76;66.92;101462.09;7393780;19;20074;-67
2022/05/20 06:17:56;;;;;;;8.25;0.50;;;;;;;16.74;67.40;101471.28;7394199;19;20661;-67
2022/05/20 06:20:24;;;;;;;7.15;0.52;;;;;;;16.73;67.47;101477.59;7392594;19;20015;-70
2022/05/20 06:22:52;;;;;;;5.63;0.82;;;;;;;16.66;67.48;101475.63;7395213;19;20034;-68
2022/05/20 06:25:20;;;;;;;6.40;0.52;;;;;;;16.66;67.82;101480.13;7391882;19;20027;-69
2022/05/20 06:27:47;;;;;;;5.93;0.50;;;;;;;16.65;67.60;101479.31;7388840;19;20014;-69
2022/05/20 06:30:18;;;;;;;4.22;0.30;;;;;;;16.68;68.31;101476.28;7392003;19;20014;-67
2022/05/20 06:32:45;;;;;;;2.30;0.40;;;;;;;16.71;68.37;101472.44;7391957;19;20011;-67
2022/05/20 06:40:21;;;;;;;4.15;0.40;;;;;;;16.76;68.74;101427.56;7393041;19;20716;-69
2022/05/20 06:42:48;;;;;;;2.85;0.40;;;;;;;16.81;68.24;101424.38;7392039;19;20021;-68
2022/05/20 06:45:17;;;;;;;8.07;1.15;;;;;;;16.82;67.87;101420.69;7395275;19;20027;-67
2022/05/20 06:47:44;;;;;;;2.55;0.40;;;;;;;16.82;67.75;101418.88;7388599;19;20024;-69
2022/05/20 06:50:12;;;;;;;6.03;0.30;;;;;;;16.86;67.84;101414.88;7392621;19;20623;-69
2022/05/20 06:52:39;;;;;;;2.17;0.40;;;;;;;16.88;67.51;101407.53;7388518;19;20113;-68
2022/05/20 06:55:08;;;;;;;4.20;0.50;;;;;;;16.94;68.00;101409.47;7390459;19;20480;-68
2022/05/20 06:57:39;;;;;;;3.33;0.52;;;;;;;16.92;67.85;101408.81;7386846;19;20352;-69
2022/05/20 07:00:11;;;;;;;3.17;0.35;;;;;;;16.93;66.89;101410.47;7389818;19;20011;-66
2022/05/20 07:02:40;;;;;;;2.35;0.30;;;;;;;16.90;67.11;101408.19;7394774;19;20006;-69
2022/05/20 07:05:09;;;;;;;4.85;0.30;;;;;;;16.87;66.99;101402.38;7392782;19;20349;-68
2022/05/20 07:07:37;;;;;;;3.97;0.35;;;;;;;16.85;66.77;101401.75;7388431;19;20433;-69
2022/05/20 07:10:06;;;;;;;4.22;0.55;;;;;;;16.82;67.34;101394.13;7393699;19;20051;-68
2022/05/20 07:12:37;;;;;;;5.13;0.40;;;;;;;16.87;67.90;101389.91;7390974;19;20043;-68
2022/05/20 07:15:25;;;;;;;3.03;0.50;;;;;;;16.95;67.49;101391.69;7389827;19;20014;-69
2022/05/20 07:17:52;;;;;;;4.88;0.85;;;;;;;16.97;67.58;101390.50;7388530;19;20346;-68
2022/05/20 07:20:19;;;;;;;3.08;0.30;;;;;;;17.02;67.77;101397.91;7395636;19;20021;-67
2022/05/20 07:22:46;;;;;;;7.05;0.95;;;;;;;17.03;68.15;101392.44;7390504;19;20010;-69
2022/05/20 07:25:14;;;;;;;10.20;0.70;;;;;;;17.07;69.30;101387.56;7390922;19;20002;-69
2022/05/20 07:27:42;;;;;;;8.93;0.82;;;;;;;17.15;69.67;101389.34;7389211;19;20421;-70
2022/05/20 07:30:09;;;;;;;4.60;0.47;;;;;;;17.18;67.92;101391.63;7390043;19;20007;-70
2022/05/20 07:32:37;;;;;;;6.65;0.73;;;;;;;17.17;67.74;101374.03;7390708;19;20011;-69
2022/05/20 07:35:06;;;;;;;5.97;0.47;;;;;;;17.14;66.62;101374.38;7394061;19;20010;-68
2022/05/20 07:37:33;;;;;;;2.38;0.50;;;;;;;17.09;66.60;101369.59;7388742;19;20310;-70
2022/05/20 07:40:03;;;;;;;8.20;0.50;;;;;;;17.12;67.15;101373.75;7389338;19;20011;-69
2022/05/20 07:42:30;;;;;;;4.65;0.50;;;;;;;17.12;67.34;101369.22;7387004;19;20036;-68
2022/05/20 07:44:57;;;;;;;8.32;0.60;;;;;;;17.18;66.84;101367.69;7389073;19;20011;-70
2022/05/20 07:47:26;;;;;;;4.15;0.70;;;;;;;17.21;66.73;101362.84;7387840;19;20824;-69
2022/05/20 07:50:04;;;;;;;6.70;0.47;;;;;;;17.22;66.36;101364.47;7391916;19;20671;-67
2022/05/20 07:55:09;;;;;;;5.55;0.85;;;;;;;17.22;66.04;101363.66;7393755;19;20472;-68
2022/05/20 07:57:39;;;;;;;4.70;0.60;;;;;;;17.24;67.20;101365.13;7388521;19;20557;-68
2022/05/20 08:00:12;;;;;;;3.35;0.50;;;;;;;17.27;65.47;101364.75;7388237;19;20018;-67
2022/05/20 08:02:43;;;;;;;9.45;0.88;;;;;;;17.29;64.83;101356.59;7387639;19;20015;-67
2022/05/20 08:05:13;;;;;;;7.78;0.63;;;;;;;17.35;68.77;101363.84;7388380;19;20837;-69
2022/05/20 08:07:48;;;;;;;5.53;0.63;;;;;;;17.39;68.58;101365.94;7383915;19;20007;-69
2022/05/20 08:10:20;;;;;;;7.53;0.60;;;;;;;17.45;68.98;101377.69;7392062;19;20042;-67
2022/05/20 08:12:48;;;;;;;9.20;0.57;;;;;;;17.51;70.27;101384.94;7388918;19;20484;-71
2022/05/20 08:15:16;;;;;;;2.15;0.40;;;;;;;17.56;68.57;101389.72;7391578;19;20333;-68
2022/05/20 08:17:44;;;;;;;6.32;0.57;;;;;;;17.54;66.87;101389.88;7385498;19;20011;-68
2022/05/20 08:20:18;;;;;;;5.68;0.60;;;;;;;17.51;68.61;101384.94;7391923;19;20377;-68
2022/05/20 08:22:45;;;;;;;13.98;0.50;;;;;;;17.57;74.48;101389.53;7389306;19;20007;-69
2022/05/20 08:25:12;;;;;;;4.82;0.82;;;;;;;17.51;72.39;101385.78;7391552;19;20158;-67
2022/05/20 08:27:39;;;;;;;7.47;0.60;;;;;;;17.46;69.79;101374.03;7392087;19;20018;-68
2022/05/20 08:30:24;;;;;;;6.93;0.70;;;;;;;17.42;69.92;101367.44;7386504;19;20011;-68
2022/05/20 08:32:51;;;;;;;6.80;0.65;;;;;;;17.38;70.48;101366.94;7389498;19;20038;-68
2022/05/20 08:35:21;;;;;;;4.05;0.65;;;;;;;17.30;69.65;101364.41;7388013;19;20113;-68
2022/05/20 08:37:49;;;;;;;4.00;0.80;;;;;;;17.29;71.46;101359.25;7386945;19;20513;-68
2022/05/20 08:40:21;;;;;;;8.70;1.40;;;;;;;17.24;72.24;101346.50;7387255;19;20007;-71
2022/05/20 08:42:51;;;;;;;5.35;0.60;;;;;;;17.21;72.74;101373.47;7384667;19;20342;-69
2022/05/20 08:45:25;;;;;;;7.75;0.80;;;;;;;17.18;72.68;101367.69;7387288;19;20113;-68
2022/05/20 08:47:52;;;;;;;10.55;4.72;;;;;;;17.12;73.42;101358.59;7388079;19;20007;-67
2022/05/20 08:50:25;;;;;;;8.27;2.67;;;;;;;17.09;72.20;101357.13;7387588;19;20460;-67
2022/05/20 08:52:56;;;;;;;4.68;0.60;;;;;;;17.01;72.54;101381.16;7388336;19;20011;-68
2022/05/20 08:55:23;;;;;;;4.00;0.50;;;;;;;16.95;71.08;101397.84;7357669;19;20608;-66
2022/05/20 08:57:56;;;;;;;7.05;0.40;;;;;;;16.86;71.48;101395.44;7379850;19;20010;-72
2022/05/20 09:00:24;;;;;;;6.25;1.00;;;;;;;16.78;72.91;101390.16;7385895;19;20003;-67
2022/05/20 09:02:55;;;;;;;8.57;0.60;;;;;;;16.77;74.69;101407.13;7385795;19;20040;-68
2022/05/20 09:05:31;;;;;;;6.55;1.55;;;;;;;16.78;76.42;101387.50;7386069;19;20013;-67
2022/05/20 09:08:01;;;;;;;8.77;3.10;;;;;;;16.76;78.42;101362.97;7381872;19;20022;-68
2022/05/20 09:10:33;;;;;;;12.20;2.97;;;;;;;16.74;79.62;101357.00;7386957;19;20007;-68
2022/05/20 09:13:07;;;;;;;12.30;1.00;;;;;;;16.72;80.25;101332.41;7385435;19;20006;-67
2022/05/20 09:18:17;;;;;;;8.82;1.35;;;;;;;16.62;79.44;101337.97;7382539;19;20471;-67
2022/05/20 09:20:48;;;;;;;6.63;0.98;;;;;;;16.58;80.00;101334.00;7386942;19;20010;-68
2022/05/20 09:23:20;;;;;;;7.38;0.80;;;;;;;16.50;80.16;101332.25;7389000;19;20015;-67
2022/05/20 09:25:57;;;;;;;5.68;0.90;;;;;;;16.48;81.25;101339.56;7384480;19;20014;-68
2022/05/20 09:28:30;;;;;;;7.28;1.13;;;;;;;16.53;82.57;101354.97;7384810;19;20074;-68
2022/05/20 09:31:05;;;;;;;4.82;0.82;;;;;;;16.48;82.31;101352.84;7386987;19;20003;-69
2022/05/20 09:33:36;;;;;;;7.45;1.05;;;;;;;16.42;83.10;101334.13;7387912;19;20395;-68
2022/05/20 09:36:06;;;;;;;13.13;7.75;;;;;;;16.41;83.80;101353.72;7386176;19;20014;-69
2022/05/20 09:38:35;;;;;;;10.85;1.77;;;;;;;16.36;84.81;101366.72;7382287;19;20010;-68
2022/05/20 09:41:11;;;;;;;11.55;1.20;;;;;;;16.36;84.77;101380.81;7384708;19;20018;-67
2022/05/20 09:43:40;;;;;;;9.75;0.93;;;;;;;16.33;84.99;101314.78;7385704;19;20010;-67
2022/05/20 09:46:27;;;;;;;10.38;1.40;;;;;;;16.29;85.46;101316.16;7390749;19;20014;-67
2022/05/20 09:48:58;;;;;;;10.82;3.88;;;;;;;16.31;86.53;101332.72;7392760;19;20021;-69
2022/05/20 09:51:38;;;;;;;7.43;1.30;;;;;;;16.27;85.09;101350.84;7397339;19;20014;-67
2022/05/20 09:54:12;;;;;;;8.20;1.38;;;;;;;16.20;84.77;101362.38;7393739;19;20087;-69
2022/05/20 09:56:44;;;;;;;7.45;1.05;;;;;;;16.13;85.30;101348.97;7391202;19;20061;-70
2022/05/20 09:59:33;;;;;;;12.40;1.52;;;;;;;16.12;86.11;101338.50;7393052;19;20014;-69
2022/05/20 10:02:04;;;;;;;21.20;6.47;;;;;;;16.11;87.00;101352.78;7392085;19;20006;-68
2022/05/20 10:04:41;;;;;;;8.27;1.30;;;;;;;16.12;86.87;101362.41;7393753;19;20014;-67
2022/05/20 10:07:13;;;;;;;15.05;2.00;;;;;;;16.13;87.09;101364.06;7394626;19;20022;-68
2022/05/20 10:09:49;;;;;;;7.10;1.58;;;;;;;16.14;86.59;101382.47;7390708;19;20010;-70
2022/05/20 10:12:18;;;;;;;9.73;1.20;;;;;;;16.12;87.13;101373.03;7392842;19;20018;-69
2022/05/20 10:14:56;;;;;;;8.15;0.95;;;;;;;16.07;86.44;101392.13;7394054;19;20381;-67
2022/05/20 10:17:30;;;;;;;9.63;1.58;;;;;;;16.11;87.74;101392.59;7391284;19;20044;-68
2022/05/20 10:20:22;;;;;;;7.82;1.10;;;;;;;16.13;87.42;101386.13;7393393;19;20030;-67
2022/05/20 10:23:01;;;;;;;10.48;1.33;;;;;;;16.10;87.64;101381.16;7392981;19;20028;-70
2022/05/20 10:25:37;;;;;;;13.30;1.63;;;;;;;16.06;88.40;101377.19;7391348;19;20010;-68
2022/05/20 10:28:08;;;;;;;8.32;1.10;;;;;;;16.01;88.27;101373.41;7390759;19;20014;-69
2022/05/20 10:33:22;;;;;;;12.65;1.90;;;;;;;16.01;89.22;101392.81;7390462;19;20072;-66
2022/05/20 10:35:55;;;;;;;11.85;1.63;;;;;;;15.99;89.17;101391.38;7393928;19;20010;-69
2022/05/20 10:38:23;;;;;;;6.68;1.40;;;;;;;15.96;89.48;101362.50;7385861;19;20045;-66
2022/05/20 10:40:59;;;;;;;10.05;2.38;;;;;;;15.92;89.91;101338.13;7391464;19;20478;-67
2022/05/20 10:43:31;;;;;;;12.20;1.65;;;;;;;15.89;90.14;101319.91;7391139;19;20011;-70
2022/05/20 10:48:35;;;;;;;6.40;1.67;;;;;;;15.86;91.40;101322.91;7388231;19;20333;-68
2022/05/20 10:51:05;;;;;;;11.02;5.10;;;;;;;15.81;91.34;101318.13;7392926;19;20003;-68
2022/05/20 10:53:38;;;;;;;6.72;1.73;;;;;;;15.74;89.60;101333.09;7389983;19;20018;-67
2022/05/20 10:56:09;;;;;;;9.73;4.30;;;;;;;15.68;90.47;101325.84;7391366;19;20038;-68
2022/05/20 10:58:43;;;;;;;7.68;1.13;;;;;;;15.60;88.47;101333.81;7387169;19;20431;-68
2022/05/20 11:01:18;;;;;;;7.50;0.75;;;;;;;15.57;87.88;101334.19;7394314;19;20043;-67
2022/05/20 11:03:52;;;;;;;6.72;1.15;;;;;;;15.55;87.49;101333.50;7392273;19;20503;-68
2022/05/20 11:06:22;;;;;;;7.72;0.80;;;;;;;15.55;87.59;101336.16;7390871;19;20082;-69
2022/05/20 11:08:51;;;;;;;4.63;0.80;;;;;;;15.50;86.35;101333.16;7387327;19;20062;-68
2022/05/20 11:11:32;;;;;;;9.02;5.22;;;;;;;15.48;86.40;101323.75;7388953;19;20018;-67
2022/05/20 11:14:06;;;;;;;4.55;1.00;;;;;;;15.52;87.41;101309.16;7393108;19;20010;-67
2022/05/20 11:16:34;;;;;;;9.00;1.92;;;;;;;15.53;86.63;101313.47;7388497;19;20014;-66
2022/05/20 11:19:12;;;;;;;5.45;1.00;;;;;;;15.58;87.22;101309.31;7388299;19;20436;-68
2022/05/20 11:21:53;;;;;;;6.70;1.23;;;;;;;15.66;87.90;101311.91;7391223;19;20433;-69
2022/05/20 11:24:20;;;;;;;4.88;0.98;;;;;;;15.71;86.80;101312.22;7388715;19;20530;-70
2022/05/20 11:26:54;;;;;;;7.28;0.80;;;;;;;15.74;86.81;101306.56;7390941;19;20018;-69
2022/05/20 11:29:27;;;;;;;7.38;0.90;;;;;;;15.72;87.07;101311.22;7381674;19;20242;-67
2022/05/20 11:31:59;;;;;;;6.03;2.40;;;;;;;15.74;88.05;101319.00;7384711;19;20471;-69
2022/05/20 11:34:33;;;;;;;8.88;2.38;;;;;;;15.74;87.75;101316.34;7390078;19;20007;-70
2022/05/20 11:37:37;;;;;;;7.07;3.53;;;;;;;15.71;87.69;101319.34;7386321;19;20010;-68
2022/05/20 11:40:37;;;;;;;8.35;1.27;;;;;;;15.67;87.96;101313.56;7387929;19;20081;-69
2022/05/20 11:43:26;;;;;;;3.03;0.55;;;;;;;15.65;85.88;101328.81;7385762;19;20014;-70
2022/05/20 11:46:02;;;;;;;7.40;1.77;;;;;;;15.62;85.69;101326.53;7389535;19;20476;-69
2022/05/20 11:48:44;;;;;;;7.00;0.93;;;;;;;15.62;86.12;101334.47;7387475;19;20011;-69
2022/05/20 11:51:37;;;;;;;17.95;5.07;;;;;;;15.58;85.75;101329.69;7389734;19;20038;-67
2022/05/20 11:54:08;;;;;;;6.15;0.95;;;;;;;15.56;87.24;101327.22;7387385;19;20014;-68
2022/05/20 11:56:42;;;;;;;2.97;0.88;;;;;;;15.59;87.47;101326.06;7388063;19;20449;-70
2022/05/20 11:59:23;;;;;;;11.40;4.28;;;;;;;15.62;88.06;101313.25;7388013;19;20006;-67
2022/05/20 12:01:56;;;;;;;9.68;3.95;;;;;;;15.63;86.90;101317.56;7386227;19;20034;-67
2022/05/20 12:04:27;;;;;;;4.78;0.70;;;;;;;15.66;87.37;101309.25;7387866;19;20018;-68
2022/05/20 12:06:59;;;;;;;9.55;4.22;;;;;;;15.67;87.24;101308.25;7384759;19;20106;-69
2022/05/20 12:09:37;;;;;;;4.60;0.70;;;;;;;15.71;86.84;101298.94;7386487;19;20518;-68
2022/05/20 12:12:24;;;;;;;4.05;0.88;;;;;;;15.75;87.75;101292.28;7384308;19;20476;-67
2022/05/20 12:15:11;;;;;;;23.50;6.95;;;;;;;15.76;87.93;101298.41;7387701;19;20026;-68
2022/05/20 12:17:38;;;;;;;8.25;1.95;;;;;;;15.77;88.00;101294.78;7385657;19;20405;-67